sensor_id;sensor_type;location;lat;lon;timestamp;pressure;altitude;pressure_sealevel;temperature
75822;BMP180;64454;51.984;9.838;2023-11-21T00:00:29;99556.00;;;7.40
75822;BMP180;64454;51.984;9.838;2023-11-21T00:02:55;99566.00;;;7.30
75822;BMP180;64454;51.984;9.838;2023-11-21T00:05:21;99573.00;;;7.20
75822;BMP180;64454;51.984;9.838;2023-11-21T00:07:49;99576.00;;;7.60
75822;BMP180;64454;51.984;9.838;2023-11-21T00:10:15;99572.00;;;7.60
75822;BMP180;64454;51.984;9.838;2023-11-21T00:12:42;99574.00;;;7.50
75822;BMP180;64454;51.984;9.838;2023-11-21T00:15:10;99576.00;;;7.60
75822;BMP180;64454;51.984;9.838;2023-11-21T00:17:37;99577.00;;;7.50
75822;BMP180;64454;51.984;9.838;2023-11-21T00:20:05;99577.00;;;7.40
75822;BMP180;64454;51.984;9.838;2023-11-21T00:22:32;99583.00;;;7.20
75822;BMP180;64454;51.984;9.838;2023-11-21T00:24:58;99588.00;;;7.20
75822;BMP180;64454;51.984;9.838;2023-11-21T00:27:24;99581.00;;;7.30
75822;BMP180;64454;51.984;9.838;2023-11-21T00:29:51;99581.00;;;7.40
75822;BMP180;64454;51.984;9.838;2023-11-21T00:32:17;99585.00;;;7.30
75822;BMP180;64454;51.984;9.838;2023-11-21T00:34:44;99584.00;;;7.30
75822;BMP180;64454;51.984;9.838;2023-11-21T00:37:10;99586.00;;;7.30
75822;BMP180;64454;51.984;9.838;2023-11-21T00:39:37;99586.00;;;7.40
75822;BMP180;64454;51.984;9.838;2023-11-21T00:42:04;99590.00;;;7.50
75822;BMP180;64454;51.984;9.838;2023-11-21T00:44:31;99591.00;;;7.40
75822;BMP180;64454;51.984;9.838;2023-11-21T00:46:57;99590.00;;;7.30
75822;BMP180;64454;51.984;9.838;2023-11-21T00:49:23;99585.00;;;7.50
75822;BMP180;64454;51.984;9.838;2023-11-21T00:51:50;99580.00;;;7.40
75822;BMP180;64454;51.984;9.838;2023-11-21T00:54:16;99582.00;;;7.60
75822;BMP180;64454;51.984;9.838;2023-11-21T00:56:43;99592.00;;;7.40
75822;BMP180;64454;51.984;9.838;2023-11-21T00:59:09;99589.00;;;7.40
75822;BMP180;64454;51.984;9.838;2023-11-21T01:01:36;99595.00;;;7.30
75822;BMP180;64454;51.984;9.838;2023-11-21T01:04:04;99600.00;;;7.30
75822;BMP180;64454;51.984;9.838;2023-11-21T01:06:32;99604.00;;;7.20
75822;BMP180;64454;51.984;9.838;2023-11-21T01:08:59;99603.00;;;7.10
75822;BMP180;64454;51.984;9.838;2023-11-21T01:11:25;99598.00;;;7.20
75822;BMP180;64454;51.984;9.838;2023-11-21T01:13:52;99600.00;;;7.20
75822;BMP180;64454;51.984;9.838;2023-11-21T01:16:19;99608.00;;;7.20
75822;BMP180;64454;51.984;9.838;2023-11-21T01:18:45;99606.00;;;7.20
75822;BMP180;64454;51.984;9.838;2023-11-21T01:21:11;99612.00;;;7.20
75822;BMP180;64454;51.984;9.838;2023-11-21T01:23:38;99608.00;;;7.20
75822;BMP180;64454;51.984;9.838;2023-11-21T01:26:05;99613.00;;;7.20
75822;BMP180;64454;51.984;9.838;2023-11-21T01:28:31;99618.00;;;7.30
75822;BMP180;64454;51.984;9.838;2023-11-21T01:30:57;99611.00;;;7.40
75822;BMP180;64454;51.984;9.838;2023-11-21T01:33:24;99611.00;;;7.40
75822;BMP180;64454;51.984;9.838;2023-11-21T01:35:51;99616.00;;;7.20
75822;BMP180;64454;51.984;9.838;2023-11-21T01:38:20;99626.00;;;7.20
75822;BMP180;64454;51.984;9.838;2023-11-21T01:40:46;99623.00;;;7.30
75822;BMP180;64454;51.984;9.838;2023-11-21T01:43:13;99629.00;;;7.40
75822;BMP180;64454;51.984;9.838;2023-11-21T01:45:39;99629.00;;;7.40
75822;BMP180;64454;51.984;9.838;2023-11-21T01:48:06;99630.00;;;7.40
75822;BMP180;64454;51.984;9.838;2023-11-21T01:50:33;99630.00;;;7.50
75822;BMP180;64454;51.984;9.838;2023-11-21T01:53:00;99630.00;;;7.60
75822;BMP180;64454;51.984;9.838;2023-11-21T01:55:27;99636.00;;;7.30
75822;BMP180;64454;51.984;9.838;2023-11-21T01:57:56;99640.00;;;7.30
75822;BMP180;64454;51.984;9.838;2023-11-21T02:00:23;99648.00;;;7.20
75822;BMP180;64454;51.984;9.838;2023-11-21T02:02:49;99648.00;;;7.60
75822;BMP180;64454;51.984;9.838;2023-11-21T02:05:18;99641.00;;;7.70
75822;BMP180;64454;51.984;9.838;2023-11-21T02:07:45;99653.00;;;7.50
75822;BMP180;64454;51.984;9.838;2023-11-21T02:10:14;99644.00;;;7.50
75822;BMP180;64454;51.984;9.838;2023-11-21T02:12:41;99644.00;;;7.40
75822;BMP180;64454;51.984;9.838;2023-11-21T02:15:10;99636.00;;;7.40
75822;BMP180;64454;51.984;9.838;2023-11-21T02:17:41;99637.00;;;7.40
75822;BMP180;64454;51.984;9.838;2023-11-21T02:20:10;99640.00;;;7.60
75822;BMP180;64454;51.984;9.838;2023-11-21T02:22:43;99648.00;;;7.50
75822;BMP180;64454;51.984;9.838;2023-11-21T02:25:10;99636.00;;;7.50
75822;BMP180;64454;51.984;9.838;2023-11-21T02:27:37;99639.00;;;7.40
75822;BMP180;64454;51.984;9.838;2023-11-21T02:30:04;99637.00;;;7.60
75822;BMP180;64454;51.984;9.838;2023-11-21T02:32:31;99637.00;;;7.40
75822;BMP180;64454;51.984;9.838;2023-11-21T02:34:57;99646.00;;;7.70
75822;BMP180;64454;51.984;9.838;2023-11-21T02:37:26;99644.00;;;7.60
75822;BMP180;64454;51.984;9.838;2023-11-21T02:39:52;99650.00;;;7.60
75822;BMP180;64454;51.984;9.838;2023-11-21T02:42:19;99642.00;;;7.80
75822;BMP180;64454;51.984;9.838;2023-11-21T02:44:46;99647.00;;;7.90
75822;BMP180;64454;51.984;9.838;2023-11-21T02:47:12;99643.00;;;7.90
75822;BMP180;64454;51.984;9.838;2023-11-21T02:49:38;99643.00;;;7.80
75822;BMP180;64454;51.984;9.838;2023-11-21T02:52:05;99639.00;;;7.80
75822;BMP180;64454;51.984;9.838;2023-11-21T02:54:31;99636.00;;;7.80
75822;BMP180;64454;51.984;9.838;2023-11-21T02:57:02;99647.00;;;7.80
75822;BMP180;64454;51.984;9.838;2023-11-21T02:59:28;99644.00;;;7.90
75822;BMP180;64454;51.984;9.838;2023-11-21T03:01:55;99639.00;;;7.90
75822;BMP180;64454;51.984;9.838;2023-11-21T03:04:22;99653.00;;;7.80
75822;BMP180;64454;51.984;9.838;2023-11-21T03:06:48;99649.00;;;7.70
75822;BMP180;64454;51.984;9.838;2023-11-21T03:09:14;99650.00;;;8.00
75822;BMP180;64454;51.984;9.838;2023-11-21T03:11:42;99653.00;;;7.90
75822;BMP180;64454;51.984;9.838;2023-11-21T03:14:08;99658.00;;;8.00
75822;BMP180;64454;51.984;9.838;2023-11-21T03:16:35;99658.00;;;8.10
75822;BMP180;64454;51.984;9.838;2023-11-21T03:19:01;99659.00;;;8.10
75822;BMP180;64454;51.984;9.838;2023-11-21T03:21:27;99656.00;;;8.10
75822;BMP180;64454;51.984;9.838;2023-11-21T03:23:54;99661.00;;;7.90
75822;BMP180;64454;51.984;9.838;2023-11-21T03:26:21;99660.00;;;8.10
75822;BMP180;64454;51.984;9.838;2023-11-21T03:28:47;99671.00;;;8.10
75822;BMP180;64454;51.984;9.838;2023-11-21T03:31:13;99673.00;;;8.00
75822;BMP180;64454;51.984;9.838;2023-11-21T03:33:42;99683.00;;;8.30
75822;BMP180;64454;51.984;9.838;2023-11-21T03:36:09;99677.00;;;8.00
75822;BMP180;64454;51.984;9.838;2023-11-21T03:38:36;99684.00;;;7.90
75822;BMP180;64454;51.984;9.838;2023-11-21T03:41:02;99680.00;;;8.00
75822;BMP180;64454;51.984;9.838;2023-11-21T03:43:28;99683.00;;;7.80
75822;BMP180;64454;51.984;9.838;2023-11-21T03:45:55;99690.00;;;7.80
75822;BMP180;64454;51.984;9.838;2023-11-21T03:48:21;99686.00;;;7.70
75822;BMP180;64454;51.984;9.838;2023-11-21T03:50:48;99685.00;;;7.70
75822;BMP180;64454;51.984;9.838;2023-11-21T03:53:14;99689.00;;;8.00
75822;BMP180;64454;51.984;9.838;2023-11-21T03:55:40;99696.00;;;7.90
75822;BMP180;64454;51.984;9.838;2023-11-21T03:58:06;99688.00;;;8.00
75822;BMP180;64454;51.984;9.838;2023-11-21T04:00:32;99689.00;;;8.00
75822;BMP180;64454;51.984;9.838;2023-11-21T04:02:59;99694.00;;;7.90
75822;BMP180;64454;51.984;9.838;2023-11-21T04:05:25;99692.00;;;8.10
75822;BMP180;64454;51.984;9.838;2023-11-21T04:07:52;99692.00;;;8.10
75822;BMP180;64454;51.984;9.838;2023-11-21T04:10:18;99684.00;;;8.00
75822;BMP180;64454;51.984;9.838;2023-11-21T04:12:45;99685.00;;;7.90
75822;BMP180;64454;51.984;9.838;2023-11-21T04:15:12;99690.00;;;8.00
75822;BMP180;64454;51.984;9.838;2023-11-21T04:17:39;99696.00;;;8.10
75822;BMP180;64454;51.984;9.838;2023-11-21T04:20:07;99699.00;;;7.90
75822;BMP180;64454;51.984;9.838;2023-11-21T04:22:37;99697.00;;;7.90
75822;BMP180;64454;51.984;9.838;2023-11-21T04:25:08;99702.00;;;8.10
75822;BMP180;64454;51.984;9.838;2023-11-21T04:27:34;99699.00;;;8.10
75822;BMP180;64454;51.984;9.838;2023-11-21T04:30:00;99711.00;;;8.00
75822;BMP180;64454;51.984;9.838;2023-11-21T04:32:26;99713.00;;;8.10
75822;BMP180;64454;51.984;9.838;2023-11-21T04:34:52;99712.00;;;7.90
75822;BMP180;64454;51.984;9.838;2023-11-21T04:37:19;99722.00;;;8.10
75822;BMP180;64454;51.984;9.838;2023-11-21T04:39:45;99723.00;;;8.10
75822;BMP180;64454;51.984;9.838;2023-11-21T04:42:12;99725.00;;;8.10
75822;BMP180;64454;51.984;9.838;2023-11-21T04:44:38;99726.00;;;7.90
75822;BMP180;64454;51.984;9.838;2023-11-21T04:47:06;99722.00;;;8.10
75822;BMP180;64454;51.984;9.838;2023-11-21T04:49:33;99720.00;;;8.00
75822;BMP180;64454;51.984;9.838;2023-11-21T04:51:59;99719.00;;;8.00
75822;BMP180;64454;51.984;9.838;2023-11-21T04:54:27;99730.00;;;7.90
75822;BMP180;64454;51.984;9.838;2023-11-21T04:56:53;99735.00;;;8.00
75822;BMP180;64454;51.984;9.838;2023-11-21T04:59:20;99737.00;;;8.00
75822;BMP180;64454;51.984;9.838;2023-11-21T05:01:46;99743.00;;;8.10
75822;BMP180;64454;51.984;9.838;2023-11-21T05:04:12;99742.00;;;8.10
75822;BMP180;64454;51.984;9.838;2023-11-21T05:06:40;99748.00;;;7.90
75822;BMP180;64454;51.984;9.838;2023-11-21T05:09:06;99744.00;;;8.00
75822;BMP180;64454;51.984;9.838;2023-11-21T05:11:37;99752.00;;;8.00
75822;BMP180;64454;51.984;9.838;2023-11-21T05:14:04;99751.00;;;8.00
75822;BMP180;64454;51.984;9.838;2023-11-21T05:16:31;99757.00;;;8.00
75822;BMP180;64454;51.984;9.838;2023-11-21T05:18:59;99763.00;;;8.00
75822;BMP180;64454;51.984;9.838;2023-11-21T05:21:27;99761.00;;;7.90
75822;BMP180;64454;51.984;9.838;2023-11-21T05:23:53;99759.00;;;8.00
75822;BMP180;64454;51.984;9.838;2023-11-21T05:26:20;99762.00;;;8.20
75822;BMP180;64454;51.984;9.838;2023-11-21T05:28:46;99772.00;;;8.30
75822;BMP180;64454;51.984;9.838;2023-11-21T05:31:13;99764.00;;;8.40
75822;BMP180;64454;51.984;9.838;2023-11-21T05:33:40;99767.00;;;8.40
75822;BMP180;64454;51.984;9.838;2023-11-21T05:36:07;99772.00;;;8.30
75822;BMP180;64454;51.984;9.838;2023-11-21T05:38:35;99778.00;;;8.20
75822;BMP180;64454;51.984;9.838;2023-11-21T05:41:02;99775.00;;;8.30
75822;BMP180;64454;51.984;9.838;2023-11-21T05:43:29;99770.00;;;8.30
75822;BMP180;64454;51.984;9.838;2023-11-21T05:45:56;99771.00;;;8.20
75822;BMP180;64454;51.984;9.838;2023-11-21T05:48:22;99772.00;;;8.30
75822;BMP180;64454;51.984;9.838;2023-11-21T05:50:49;99780.00;;;8.30
75822;BMP180;64454;51.984;9.838;2023-11-21T05:53:16;99786.00;;;8.40
75822;BMP180;64454;51.984;9.838;2023-11-21T05:55:42;99788.00;;;8.40
75822;BMP180;64454;51.984;9.838;2023-11-21T05:58:08;99792.00;;;8.40
75822;BMP180;64454;51.984;9.838;2023-11-21T06:00:37;99788.00;;;8.40
75822;BMP180;64454;51.984;9.838;2023-11-21T06:03:03;99786.00;;;8.40
75822;BMP180;64454;51.984;9.838;2023-11-21T06:05:33;99793.00;;;8.30
75822;BMP180;64454;51.984;9.838;2023-11-21T06:08:00;99799.00;;;8.30
75822;BMP180;64454;51.984;9.838;2023-11-21T06:10:27;99801.00;;;8.30
75822;BMP180;64454;51.984;9.838;2023-11-21T06:12:54;99804.00;;;8.40
75822;BMP180;64454;51.984;9.838;2023-11-21T06:15:21;99813.00;;;8.40
75822;BMP180;64454;51.984;9.838;2023-11-21T06:17:49;99809.00;;;8.40
75822;BMP180;64454;51.984;9.838;2023-11-21T06:20:18;99807.00;;;8.40
75822;BMP180;64454;51.984;9.838;2023-11-21T06:22:49;99806.00;;;8.30
75822;BMP180;64454;51.984;9.838;2023-11-21T06:25:16;99821.00;;;8.30
75822;BMP180;64454;51.984;9.838;2023-11-21T06:27:45;99813.00;;;8.40
75822;BMP180;64454;51.984;9.838;2023-11-21T06:30:13;99825.00;;;8.30
75822;BMP180;64454;51.984;9.838;2023-11-21T06:32:41;99828.00;;;8.20
75822;BMP180;64454;51.984;9.838;2023-11-21T06:35:11;99826.00;;;8.30
75822;BMP180;64454;51.984;9.838;2023-11-21T06:37:39;99847.00;;;8.20
75822;BMP180;64454;51.984;9.838;2023-11-21T06:40:07;99842.00;;;8.20
75822;BMP180;64454;51.984;9.838;2023-11-21T06:42:34;99848.00;;;8.40
75822;BMP180;64454;51.984;9.838;2023-11-21T06:45:01;99852.00;;;8.20
75822;BMP180;64454;51.984;9.838;2023-11-21T06:47:29;99846.00;;;8.30
75822;BMP180;64454;51.984;9.838;2023-11-21T06:49:56;99851.00;;;8.30
75822;BMP180;64454;51.984;9.838;2023-11-21T06:52:23;99854.00;;;8.40
75822;BMP180;64454;51.984;9.838;2023-11-21T06:54:51;99859.00;;;8.20
75822;BMP180;64454;51.984;9.838;2023-11-21T06:57:17;99860.00;;;8.30
75822;BMP180;64454;51.984;9.838;2023-11-21T06:59:44;99864.00;;;8.10
75822;BMP180;64454;51.984;9.838;2023-11-21T07:02:11;99861.00;;;8.10
75822;BMP180;64454;51.984;9.838;2023-11-21T07:04:37;99869.00;;;8.10
75822;BMP180;64454;51.984;9.838;2023-11-21T07:07:04;99869.00;;;8.10
75822;BMP180;64454;51.984;9.838;2023-11-21T07:09:32;99877.00;;;8.10
75822;BMP180;64454;51.984;9.838;2023-11-21T07:11:58;99879.00;;;8.20
75822;BMP180;64454;51.984;9.838;2023-11-21T07:14:25;99880.00;;;8.30
75822;BMP180;64454;51.984;9.838;2023-11-21T07:16:52;99880.00;;;8.30
75822;BMP180;64454;51.984;9.838;2023-11-21T07:19:18;99882.00;;;8.30
75822;BMP180;64454;51.984;9.838;2023-11-21T07:21:45;99885.00;;;8.30
75822;BMP180;64454;51.984;9.838;2023-11-21T07:24:11;99887.00;;;8.30
75822;BMP180;64454;51.984;9.838;2023-11-21T07:26:37;99885.00;;;8.30
75822;BMP180;64454;51.984;9.838;2023-11-21T07:29:04;99894.00;;;8.20
75822;BMP180;64454;51.984;9.838;2023-11-21T07:31:31;99901.00;;;8.20
75822;BMP180;64454;51.984;9.838;2023-11-21T07:34:00;99901.00;;;8.10
75822;BMP180;64454;51.984;9.838;2023-11-21T07:36:27;99910.00;;;8.30
75822;BMP180;64454;51.984;9.838;2023-11-21T07:38:53;99913.00;;;8.30
75822;BMP180;64454;51.984;9.838;2023-11-21T07:41:20;99912.00;;;8.30
75822;BMP180;64454;51.984;9.838;2023-11-21T07:43:46;99919.00;;;8.20
75822;BMP180;64454;51.984;9.838;2023-11-21T07:46:13;99909.00;;;8.30
75822;BMP180;64454;51.984;9.838;2023-11-21T07:48:40;99919.00;;;8.40
75822;BMP180;64454;51.984;9.838;2023-11-21T07:51:08;99919.00;;;8.30
75822;BMP180;64454;51.984;9.838;2023-11-21T07:53:35;99929.00;;;8.30
75822;BMP180;64454;51.984;9.838;2023-11-21T07:56:04;99935.00;;;8.30
75822;BMP180;64454;51.984;9.838;2023-11-21T07:58:30;99940.00;;;8.50
75822;BMP180;64454;51.984;9.838;2023-11-21T08:00:59;99940.00;;;8.50
75822;BMP180;64454;51.984;9.838;2023-11-21T08:03:25;99949.00;;;8.50
75822;BMP180;64454;51.984;9.838;2023-11-21T08:05:52;99947.00;;;8.50
75822;BMP180;64454;51.984;9.838;2023-11-21T08:08:19;99950.00;;;8.50
75822;BMP180;64454;51.984;9.838;2023-11-21T08:10:45;99953.00;;;8.50
75822;BMP180;64454;51.984;9.838;2023-11-21T08:13:22;99956.00;;;8.60
75822;BMP180;64454;51.984;9.838;2023-11-21T08:15:48;99951.00;;;8.70
75822;BMP180;64454;51.984;9.838;2023-11-21T08:18:14;99954.00;;;8.90
75822;BMP180;64454;51.984;9.838;2023-11-21T08:20:42;99957.00;;;8.90
75822;BMP180;64454;51.984;9.838;2023-11-21T08:23:08;99960.00;;;8.80
75822;BMP180;64454;51.984;9.838;2023-11-21T08:25:35;99962.00;;;8.70
75822;BMP180;64454;51.984;9.838;2023-11-21T08:28:01;99959.00;;;8.90
75822;BMP180;64454;51.984;9.838;2023-11-21T08:30:28;99969.00;;;9.00
75822;BMP180;64454;51.984;9.838;2023-11-21T08:32:55;99967.00;;;9.20
75822;BMP180;64454;51.984;9.838;2023-11-21T08:35:23;99970.00;;;9.10
75822;BMP180;64454;51.984;9.838;2023-11-21T08:37:51;99982.00;;;8.90
75822;BMP180;64454;51.984;9.838;2023-11-21T08:40:18;99986.00;;;9.10
75822;BMP180;64454;51.984;9.838;2023-11-21T08:42:45;99977.00;;;9.10
75822;BMP180;64454;51.984;9.838;2023-11-21T08:45:12;99982.00;;;9.00
75822;BMP180;64454;51.984;9.838;2023-11-21T08:47:38;99991.00;;;9.10
75822;BMP180;64454;51.984;9.838;2023-11-21T08:50:06;99990.00;;;9.10
75822;BMP180;64454;51.984;9.838;2023-11-21T08:52:33;99999.00;;;9.20
75822;BMP180;64454;51.984;9.838;2023-11-21T08:54:59;99996.00;;;9.20
75822;BMP180;64454;51.984;9.838;2023-11-21T08:57:28;100002.00;;;9.10
75822;BMP180;64454;51.984;9.838;2023-11-21T08:59:56;100010.00;;;8.90
75822;BMP180;64454;51.984;9.838;2023-11-21T09:02:22;100003.00;;;8.90
75822;BMP180;64454;51.984;9.838;2023-11-21T09:04:50;100015.00;;;9.00
75822;BMP180;64454;51.984;9.838;2023-11-21T09:07:18;100016.00;;;9.10
75822;BMP180;64454;51.984;9.838;2023-11-21T09:09:44;100018.00;;;8.80
75822;BMP180;64454;51.984;9.838;2023-11-21T09:12:10;100024.00;;;8.70
75822;BMP180;64454;51.984;9.838;2023-11-21T09:14:38;100018.00;;;8.70
75822;BMP180;64454;51.984;9.838;2023-11-21T09:17:05;100035.00;;;8.70
75822;BMP180;64454;51.984;9.838;2023-11-21T09:19:36;100037.00;;;8.60
75822;BMP180;64454;51.984;9.838;2023-11-21T09:22:03;100033.00;;;8.50
75822;BMP180;64454;51.984;9.838;2023-11-21T09:24:30;100030.00;;;8.70
75822;BMP180;64454;51.984;9.838;2023-11-21T09:26:57;100041.00;;;8.40
75822;BMP180;64454;51.984;9.838;2023-11-21T09:29:23;100035.00;;;8.40
75822;BMP180;64454;51.984;9.838;2023-11-21T09:31:49;100040.00;;;8.70
75822;BMP180;64454;51.984;9.838;2023-11-21T09:34:17;100043.00;;;8.40
75822;BMP180;64454;51.984;9.838;2023-11-21T09:36:45;100054.00;;;8.30
75822;BMP180;64454;51.984;9.838;2023-11-21T09:39:12;100061.00;;;8.40
75822;BMP180;64454;51.984;9.838;2023-11-21T09:41:46;100067.00;;;8.40
75822;BMP180;64454;51.984;9.838;2023-11-21T09:44:17;100080.00;;;8.50
75822;BMP180;64454;51.984;9.838;2023-11-21T09:46:47;100064.00;;;8.50
75822;BMP180;64454;51.984;9.838;2023-11-21T09:49:15;100073.00;;;8.40
75822;BMP180;64454;51.984;9.838;2023-11-21T09:51:47;100082.00;;;8.40
75822;BMP180;64454;51.984;9.838;2023-11-21T09:54:16;100081.00;;;8.60
75822;BMP180;64454;51.984;9.838;2023-11-21T09:56:43;100079.00;;;8.70
75822;BMP180;64454;51.984;9.838;2023-11-21T09:59:15;100090.00;;;8.60
75822;BMP180;64454;51.984;9.838;2023-11-21T10:01:42;100088.00;;;8.40
75822;BMP180;64454;51.984;9.838;2023-11-21T10:04:09;100098.00;;;8.30
75822;BMP180;64454;51.984;9.838;2023-11-21T10:06:39;100105.00;;;8.20
75822;BMP180;64454;51.984;9.838;2023-11-21T10:09:10;100115.00;;;8.50
75822;BMP180;64454;51.984;9.838;2023-11-21T10:11:40;100123.00;;;8.30
75822;BMP180;64454;51.984;9.838;2023-11-21T10:14:10;100127.00;;;8.10
75822;BMP180;64454;51.984;9.838;2023-11-21T10:16:39;100134.00;;;8.40
75822;BMP180;64454;51.984;9.838;2023-11-21T10:19:05;100128.00;;;8.40
75822;BMP180;64454;51.984;9.838;2023-11-21T10:21:32;100136.00;;;8.50
75822;BMP180;64454;51.984;9.838;2023-11-21T10:23:59;100135.00;;;8.30
75822;BMP180;64454;51.984;9.838;2023-11-21T10:26:26;100145.00;;;8.30
75822;BMP180;64454;51.984;9.838;2023-11-21T10:28:57;100140.00;;;8.30
75822;BMP180;64454;51.984;9.838;2023-11-21T10:31:23;100153.00;;;8.30
75822;BMP180;64454;51.984;9.838;2023-11-21T10:33:50;100154.00;;;7.90
75822;BMP180;64454;51.984;9.838;2023-11-21T10:36:25;100150.00;;;7.90
75822;BMP180;64454;51.984;9.838;2023-11-21T10:38:53;100147.00;;;8.00
75822;BMP180;64454;51.984;9.838;2023-11-21T10:41:19;100149.00;;;8.20
75822;BMP180;64454;51.984;9.838;2023-11-21T10:43:46;100150.00;;;8.10
75822;BMP180;64454;51.984;9.838;2023-11-21T10:46:14;100150.00;;;8.10
75822;BMP180;64454;51.984;9.838;2023-11-21T10:48:42;100153.00;;;8.00
75822;BMP180;64454;51.984;9.838;2023-11-21T10:51:09;100159.00;;;7.90
75822;BMP180;64454;51.984;9.838;2023-11-21T10:53:39;100165.00;;;7.90
75822;BMP180;64454;51.984;9.838;2023-11-21T10:56:09;100172.00;;;8.20
75822;BMP180;64454;51.984;9.838;2023-11-21T10:58:43;100175.00;;;8.10
75822;BMP180;64454;51.984;9.838;2023-11-21T11:01:11;100189.00;;;8.10
75822;BMP180;64454;51.984;9.838;2023-11-21T11:03:37;100200.00;;;8.40
75822;BMP180;64454;51.984;9.838;2023-11-21T11:06:05;100206.00;;;8.40
75822;BMP180;64454;51.984;9.838;2023-11-21T11:08:37;100210.00;;;8.40
75822;BMP180;64454;51.984;9.838;2023-11-21T11:11:05;100210.00;;;8.40
75822;BMP180;64454;51.984;9.838;2023-11-21T11:13:31;100207.00;;;8.60
75822;BMP180;64454;51.984;9.838;2023-11-21T11:15:59;100213.00;;;8.80
75822;BMP180;64454;51.984;9.838;2023-11-21T11:18:28;100210.00;;;8.80
75822;BMP180;64454;51.984;9.838;2023-11-21T11:21:07;100209.00;;;8.40
75822;BMP180;64454;51.984;9.838;2023-11-21T11:23:51;100220.00;;;8.30
75822;BMP180;64454;51.984;9.838;2023-11-21T11:26:35;100214.00;;;8.50
75822;BMP180;64454;51.984;9.838;2023-11-21T11:29:13;100216.00;;;8.50
75822;BMP180;64454;51.984;9.838;2023-11-21T11:31:55;100220.00;;;8.30
75822;BMP180;64454;51.984;9.838;2023-11-21T11:34:30;100220.00;;;8.10
75822;BMP180;64454;51.984;9.838;2023-11-21T11:37:02;100220.00;;;8.30
75822;BMP180;64454;51.984;9.838;2023-11-21T11:39:30;100231.00;;;8.50
75822;BMP180;64454;51.984;9.838;2023-11-21T11:41:57;100226.00;;;8.20
75822;BMP180;64454;51.984;9.838;2023-11-21T11:44:54;100235.00;;;7.90
75822;BMP180;64454;51.984;9.838;2023-11-21T11:47:24;100228.00;;;8.10
75822;BMP180;64454;51.984;9.838;2023-11-21T11:50:14;100236.00;;;8.40
75822;BMP180;64454;51.984;9.838;2023-11-21T11:52:47;100245.00;;;8.20
75822;BMP180;64454;51.984;9.838;2023-11-21T11:55:17;100244.00;;;8.30
75822;BMP180;64454;51.984;9.838;2023-11-21T11:57:45;100252.00;;;8.00
75822;BMP180;64454;51.984;9.838;2023-11-21T12:00:16;100248.00;;;8.10
75822;BMP180;64454;51.984;9.838;2023-11-21T12:02:46;100251.00;;;8.20
75822;BMP180;64454;51.984;9.838;2023-11-21T12:05:15;100249.00;;;8.30
75822;BMP180;64454;51.984;9.838;2023-11-21T12:07:50;100248.00;;;8.40
75822;BMP180;64454;51.984;9.838;2023-11-21T12:10:21;100252.00;;;8.40
75822;BMP180;64454;51.984;9.838;2023-11-21T12:12:53;100254.00;;;8.60
75822;BMP180;64454;51.984;9.838;2023-11-21T12:15:20;100254.00;;;8.30
75822;BMP180;64454;51.984;9.838;2023-11-21T12:17:48;100253.00;;;8.40
75822;BMP180;64454;51.984;9.838;2023-11-21T12:20:19;100261.00;;;8.60
75822;BMP180;64454;51.984;9.838;2023-11-21T12:22:47;100271.00;;;8.40
75822;BMP180;64454;51.984;9.838;2023-11-21T12:25:15;100277.00;;;8.50
75822;BMP180;64454;51.984;9.838;2023-11-21T12:27:45;100283.00;;;8.20
75822;BMP180;64454;51.984;9.838;2023-11-21T12:30:13;100283.00;;;8.40
75822;BMP180;64454;51.984;9.838;2023-11-21T12:32:42;100283.00;;;8.40
75822;BMP180;64454;51.984;9.838;2023-11-21T12:35:09;100293.00;;;8.70
75822;BMP180;64454;51.984;9.838;2023-11-21T12:37:37;100289.00;;;8.30
75822;BMP180;64454;51.984;9.838;2023-11-21T12:40:06;100293.00;;;8.40
75822;BMP180;64454;51.984;9.838;2023-11-21T12:42:34;100294.00;;;8.50
75822;BMP180;64454;51.984;9.838;2023-11-21T12:45:10;100289.00;;;8.50
75822;BMP180;64454;51.984;9.838;2023-11-21T12:47:42;100292.00;;;8.60
75822;BMP180;64454;51.984;9.838;2023-11-21T12:50:09;100288.00;;;8.50
75822;BMP180;64454;51.984;9.838;2023-11-21T12:52:41;100293.00;;;8.40
75822;BMP180;64454;51.984;9.838;2023-11-21T12:55:15;100299.00;;;8.60
75822;BMP180;64454;51.984;9.838;2023-11-21T12:57:45;100294.00;;;8.60
75822;BMP180;64454;51.984;9.838;2023-11-21T13:00:13;100305.00;;;8.70
75822;BMP180;64454;51.984;9.838;2023-11-21T13:02:51;100306.00;;;8.70
75822;BMP180;64454;51.984;9.838;2023-11-21T13:05:25;100315.00;;;8.70
75822;BMP180;64454;51.984;9.838;2023-11-21T13:07:52;100324.00;;;8.30
75822;BMP180;64454;51.984;9.838;2023-11-21T13:10:22;100331.00;;;8.20
75822;BMP180;64454;51.984;9.838;2023-11-21T13:12:52;100331.00;;;8.30
75822;BMP180;64454;51.984;9.838;2023-11-21T13:15:20;100330.00;;;8.30
75822;BMP180;64454;51.984;9.838;2023-11-21T13:17:46;100334.00;;;8.50
75822;BMP180;64454;51.984;9.838;2023-11-21T13:20:13;100326.00;;;8.30
75822;BMP180;64454;51.984;9.838;2023-11-21T13:22:47;100336.00;;;8.10
75822;BMP180;64454;51.984;9.838;2023-11-21T13:25:15;100338.00;;;8.40
75822;BMP180;64454;51.984;9.838;2023-11-21T13:27:44;100336.00;;;8.70
75822;BMP180;64454;51.984;9.838;2023-11-21T13:30:13;100335.00;;;8.60
75822;BMP180;64454;51.984;9.838;2023-11-21T13:32:41;100335.00;;;8.50
75822;BMP180;64454;51.984;9.838;2023-11-21T13:35:08;100342.00;;;8.50
75822;BMP180;64454;51.984;9.838;2023-11-21T13:37:40;100336.00;;;8.40
75822;BMP180;64454;51.984;9.838;2023-11-21T13:40:08;100342.00;;;8.40
75822;BMP180;64454;51.984;9.838;2023-11-21T13:42:41;100346.00;;;8.60
75822;BMP180;64454;51.984;9.838;2023-11-21T13:45:09;100353.00;;;8.30
75822;BMP180;64454;51.984;9.838;2023-11-21T13:47:35;100356.00;;;8.40
75822;BMP180;64454;51.984;9.838;2023-11-21T13:50:05;100368.00;;;8.10
75822;BMP180;64454;51.984;9.838;2023-11-21T13:52:39;100373.00;;;8.10
75822;BMP180;64454;51.984;9.838;2023-11-21T13:55:06;100377.00;;;8.60
75822;BMP180;64454;51.984;9.838;2023-11-21T13:57:40;100378.00;;;8.20
75822;BMP180;64454;51.984;9.838;2023-11-21T14:00:12;100374.00;;;8.10
75822;BMP180;64454;51.984;9.838;2023-11-21T14:02:58;100382.00;;;8.10
75822;BMP180;64454;51.984;9.838;2023-11-21T14:05:26;100392.00;;;8.40
75822;BMP180;64454;51.984;9.838;2023-11-21T14:07:55;100404.00;;;8.50
75822;BMP180;64454;51.984;9.838;2023-11-21T14:10:25;100408.00;;;8.30
75822;BMP180;64454;51.984;9.838;2023-11-21T14:12:52;100407.00;;;8.30
75822;BMP180;64454;51.984;9.838;2023-11-21T14:15:18;100415.00;;;8.20
75822;BMP180;64454;51.984;9.838;2023-11-21T14:17:44;100414.00;;;8.10
75822;BMP180;64454;51.984;9.838;2023-11-21T14:20:11;100412.00;;;8.30